<?xml version="1.0" encoding="UTF-8" standalone="no" ?>
<gpx xmlns="http://www.topografix.com/GPX/1/1" xmlns:xsi="http://www.w3.org/2001/XMLSchema-instance" xsi:schemaLocation="http://www.topografix.com/GPX/1/1 http://www.topografix.com/GPX/1/1/gpx.xsd" version="1.1" creator="VisuGPX - https://www.visugpx.com">
  <metadata>
    <name>circuit de la scie</name>
    <desc><![CDATA[Petit circuit agréable à faire même plusieurs fois ]]></desc>
  </metadata>
  <trk>
    <name><![CDATA[La scie]]></name>
    <desc><![CDATA[(null)]]></desc>
    <trkseg>
      <trkpt lat="46.94713" lon="-0.58347">
        <ele>128.004959</ele>
        <time>2012-02-04T14:56:24Z</time>
      </trkpt>
      <trkpt lat="46.94713" lon="-0.58347">
        <ele>128.004959</ele>
        <time>2012-02-04T14:56:25Z</time>
      </trkpt>
      <trkpt lat="46.94713" lon="-0.58347">
        <ele>128.004959</ele>
        <time>2012-02-04T14:56:26Z</time>
      </trkpt>
      <trkpt lat="46.94713" lon="-0.58347">
        <ele>128.004959</ele>
        <time>2012-02-04T14:56:35Z</time>
      </trkpt>
      <trkpt lat="46.94711" lon="-0.58326">
        <ele>142.005127</ele>
        <time>2012-02-04T14:56:40Z</time>
      </trkpt>
      <trkpt lat="46.94706" lon="-0.58311">
        <ele>142.005219</ele>
        <time>2012-02-04T14:56:43Z</time>
      </trkpt>
      <trkpt lat="46.947" lon="-0.58297">
        <ele>143.00531</ele>
        <time>2012-02-04T14:56:45Z</time>
      </trkpt>
      <trkpt lat="46.94692" lon="-0.58277">
        <ele>144.005432</ele>
        <time>2012-02-04T14:56:47Z</time>
      </trkpt>
      <trkpt lat="46.94685" lon="-0.58257">
        <ele>144.005569</ele>
        <time>2012-02-04T14:56:49Z</time>
      </trkpt>
      <trkpt lat="46.94677" lon="-0.58236">
        <ele>145.005707</ele>
        <time>2012-02-04T14:56:51Z</time>
      </trkpt>
      <trkpt lat="46.94657" lon="-0.58206">
        <ele>145.005859</ele>
        <time>2012-02-04T14:56:55Z</time>
      </trkpt>
      <trkpt lat="46.94645" lon="-0.58207">
        <ele>145.005798</ele>
        <time>2012-02-04T14:56:57Z</time>
      </trkpt>
      <trkpt lat="46.94628" lon="-0.58204">
        <ele>145.005753</ele>
        <time>2012-02-04T14:56:59Z</time>
      </trkpt>
      <trkpt lat="46.94612" lon="-0.58195">
        <ele>146.005753</ele>
        <time>2012-02-04T14:57:01Z</time>
      </trkpt>
      <trkpt lat="46.94603" lon="-0.58185">
        <ele>146.005783</ele>
        <time>2012-02-04T14:57:02Z</time>
      </trkpt>
      <trkpt lat="46.94592" lon="-0.58176">
        <ele>146.005829</ele>
        <time>2012-02-04T14:57:03Z</time>
      </trkpt>
      <trkpt lat="46.94582" lon="-0.58167">
        <ele>146.005859</ele>
        <time>2012-02-04T14:57:04Z</time>
      </trkpt>
      <trkpt lat="46.94572" lon="-0.58159">
        <ele>146.00589</ele>
        <time>2012-02-04T14:57:05Z</time>
      </trkpt>
      <trkpt lat="46.94562" lon="-0.58151">
        <ele>146.00589</ele>
        <time>2012-02-04T14:57:06Z</time>
      </trkpt>
      <trkpt lat="46.94551" lon="-0.58145">
        <ele>146.00589</ele>
        <time>2012-02-04T14:57:07Z</time>
      </trkpt>
      <trkpt lat="46.9454" lon="-0.58139">
        <ele>146.00589</ele>
        <time>2012-02-04T14:57:08Z</time>
      </trkpt>
      <trkpt lat="46.94529" lon="-0.58133">
        <ele>146.00589</ele>
        <time>2012-02-04T14:57:09Z</time>
      </trkpt>
      <trkpt lat="46.94517" lon="-0.58127">
        <ele>146.005905</ele>
        <time>2012-02-04T14:57:10Z</time>
      </trkpt>
      <trkpt lat="46.94506" lon="-0.58121">
        <ele>146.005905</ele>
        <time>2012-02-04T14:57:11Z</time>
      </trkpt>
      <trkpt lat="46.94494" lon="-0.58116">
        <ele>146.00589</ele>
        <time>2012-02-04T14:57:12Z</time>
      </trkpt>
      <trkpt lat="46.94483" lon="-0.5811">
        <ele>146.00589</ele>
        <time>2012-02-04T14:57:13Z</time>
      </trkpt>
      <trkpt lat="46.94473" lon="-0.58104">
        <ele>146.00589</ele>
        <time>2012-02-04T14:57:14Z</time>
      </trkpt>
      <trkpt lat="46.94462" lon="-0.58099">
        <ele>146.00589</ele>
        <time>2012-02-04T14:57:15Z</time>
      </trkpt>
      <trkpt lat="46.94451" lon="-0.58093">
        <ele>146.00589</ele>
        <time>2012-02-04T14:57:16Z</time>
      </trkpt>
      <trkpt lat="46.94439" lon="-0.58087">
        <ele>145.00589</ele>
        <time>2012-02-04T14:57:17Z</time>
      </trkpt>
      <trkpt lat="46.94428" lon="-0.58082">
        <ele>145.00589</ele>
        <time>2012-02-04T14:57:18Z</time>
      </trkpt>
      <trkpt lat="46.94419" lon="-0.58077">
        <ele>145.00589</ele>
        <time>2012-02-04T14:57:19Z</time>
      </trkpt>
      <trkpt lat="46.94402" lon="-0.58066">
        <ele>144.005905</ele>
        <time>2012-02-04T14:57:21Z</time>
      </trkpt>
      <trkpt lat="46.94388" lon="-0.58051">
        <ele>144.005966</ele>
        <time>2012-02-04T14:57:23Z</time>
      </trkpt>
      <trkpt lat="46.94381" lon="-0.58042">
        <ele>144.006012</ele>
        <time>2012-02-04T14:57:24Z</time>
      </trkpt>
      <trkpt lat="46.94372" lon="-0.58028">
        <ele>143.006088</ele>
        <time>2012-02-04T14:57:26Z</time>
      </trkpt>
      <trkpt lat="46.9436" lon="-0.5803">
        <ele>141.005997</ele>
        <time>2012-02-04T14:57:29Z</time>
      </trkpt>
      <trkpt lat="46.9435" lon="-0.58037">
        <ele>140.00592</ele>
        <time>2012-02-04T14:57:31Z</time>
      </trkpt>
      <trkpt lat="46.94346" lon="-0.58043">
        <ele>139.005844</ele>
        <time>2012-02-04T14:57:32Z</time>
      </trkpt>
      <trkpt lat="46.94341" lon="-0.58058">
        <ele>138.005707</ele>
        <time>2012-02-04T14:57:34Z</time>
      </trkpt>
      <trkpt lat="46.94341" lon="-0.58067">
        <ele>138.00563</ele>
        <time>2012-02-04T14:57:35Z</time>
      </trkpt>
      <trkpt lat="46.94338" lon="-0.58086">
        <ele>138.005463</ele>
        <time>2012-02-04T14:57:37Z</time>
      </trkpt>
      <trkpt lat="46.94328" lon="-0.58102">
        <ele>137.00531</ele>
        <time>2012-02-04T14:57:39Z</time>
      </trkpt>
      <trkpt lat="46.94316" lon="-0.58116">
        <ele>138.005127</ele>
        <time>2012-02-04T14:57:41Z</time>
      </trkpt>
      <trkpt lat="46.943" lon="-0.58125">
        <ele>138.005005</ele>
        <time>2012-02-04T14:57:43Z</time>
      </trkpt>
      <trkpt lat="46.94291" lon="-0.58129">
        <ele>138.004929</ele>
        <time>2012-02-04T14:57:44Z</time>
      </trkpt>
      <trkpt lat="46.94277" lon="-0.58138">
        <ele>136.004791</ele>
        <time>2012-02-04T14:57:46Z</time>
      </trkpt>
      <trkpt lat="46.94265" lon="-0.58149">
        <ele>135.004654</ele>
        <time>2012-02-04T14:57:48Z</time>
      </trkpt>
      <trkpt lat="46.94264" lon="-0.58164">
        <ele>133.004517</ele>
        <time>2012-02-04T14:57:51Z</time>
      </trkpt>
      <trkpt lat="46.94265" lon="-0.5817">
        <ele>133.004486</ele>
        <time>2012-02-04T14:57:52Z</time>
      </trkpt>
      <trkpt lat="46.94266" lon="-0.58187">
        <ele>132.004349</ele>
        <time>2012-02-04T14:57:55Z</time>
      </trkpt>
      <trkpt lat="46.94266" lon="-0.58193">
        <ele>132.004303</ele>
        <time>2012-02-04T14:57:56Z</time>
      </trkpt>
      <trkpt lat="46.94271" lon="-0.5821">
        <ele>131.004181</ele>
        <time>2012-02-04T14:57:59Z</time>
      </trkpt>
      <trkpt lat="46.94276" lon="-0.58226">
        <ele>132.004089</ele>
        <time>2012-02-04T14:58:02Z</time>
      </trkpt>
      <trkpt lat="46.94282" lon="-0.5824">
        <ele>132.003983</ele>
        <time>2012-02-04T14:58:06Z</time>
      </trkpt>
      <trkpt lat="46.94283" lon="-0.58254">
        <ele>133.003891</ele>
        <time>2012-02-04T14:58:09Z</time>
      </trkpt>
      <trkpt lat="46.94281" lon="-0.58269">
        <ele>133.003754</ele>
        <time>2012-02-04T14:58:13Z</time>
      </trkpt>
      <trkpt lat="46.94282" lon="-0.58288">
        <ele>133.003601</ele>
        <time>2012-02-04T14:58:16Z</time>
      </trkpt>
      <trkpt lat="46.94283" lon="-0.58306">
        <ele>133.003479</ele>
        <time>2012-02-04T14:58:19Z</time>
      </trkpt>
      <trkpt lat="46.94284" lon="-0.58321">
        <ele>132.003357</ele>
        <time>2012-02-04T14:58:22Z</time>
      </trkpt>
      <trkpt lat="46.94285" lon="-0.58336">
        <ele>131.003235</ele>
        <time>2012-02-04T14:58:25Z</time>
      </trkpt>
      <trkpt lat="46.94287" lon="-0.58351">
        <ele>131.003128</ele>
        <time>2012-02-04T14:58:28Z</time>
      </trkpt>
      <trkpt lat="46.94291" lon="-0.58368">
        <ele>131.003021</ele>
        <time>2012-02-04T14:58:31Z</time>
      </trkpt>
      <trkpt lat="46.94291" lon="-0.58385">
        <ele>132.002884</ele>
        <time>2012-02-04T14:58:34Z</time>
      </trkpt>
      <trkpt lat="46.94285" lon="-0.58397">
        <ele>134.002747</ele>
        <time>2012-02-04T14:58:37Z</time>
      </trkpt>
      <trkpt lat="46.94278" lon="-0.58409">
        <ele>133.002625</ele>
        <time>2012-02-04T14:58:40Z</time>
      </trkpt>
      <trkpt lat="46.94273" lon="-0.58424">
        <ele>132.002472</ele>
        <time>2012-02-04T14:58:43Z</time>
      </trkpt>
      <trkpt lat="46.9427" lon="-0.5844">
        <ele>130.00235</ele>
        <time>2012-02-04T14:58:46Z</time>
      </trkpt>
      <trkpt lat="46.94265" lon="-0.58456">
        <ele>128.002197</ele>
        <time>2012-02-04T14:58:49Z</time>
      </trkpt>
      <trkpt lat="46.94266" lon="-0.5847">
        <ele>127.002075</ele>
        <time>2012-02-04T14:58:52Z</time>
      </trkpt>
      <trkpt lat="46.94269" lon="-0.58487">
        <ele>126.001953</ele>
        <time>2012-02-04T14:58:55Z</time>
      </trkpt>
      <trkpt lat="46.94271" lon="-0.58501">
        <ele>125.001862</ele>
        <time>2012-02-04T14:58:57Z</time>
      </trkpt>
      <trkpt lat="46.9427" lon="-0.58515">
        <ele>124.001732</ele>
        <time>2012-02-04T14:58:59Z</time>
      </trkpt>
      <trkpt lat="46.94266" lon="-0.58529">
        <ele>124.001602</ele>
        <time>2012-02-04T14:59:01Z</time>
      </trkpt>
      <trkpt lat="46.94255" lon="-0.58537">
        <ele>125.001495</ele>
        <time>2012-02-04T14:59:04Z</time>
      </trkpt>
      <trkpt lat="46.94242" lon="-0.58539">
        <ele>125.001419</ele>
        <time>2012-02-04T14:59:07Z</time>
      </trkpt>
      <trkpt lat="46.94233" lon="-0.5854">
        <ele>125.001373</ele>
        <time>2012-02-04T14:59:09Z</time>
      </trkpt>
      <trkpt lat="46.94222" lon="-0.58541">
        <ele>125.001328</ele>
        <time>2012-02-04T14:59:11Z</time>
      </trkpt>
      <trkpt lat="46.94212" lon="-0.58542">
        <ele>125.001266</ele>
        <time>2012-02-04T14:59:13Z</time>
      </trkpt>
      <trkpt lat="46.94202" lon="-0.58542">
        <ele>125.001228</ele>
        <time>2012-02-04T14:59:15Z</time>
      </trkpt>
      <trkpt lat="46.94191" lon="-0.58543">
        <ele>124.001175</ele>
        <time>2012-02-04T14:59:17Z</time>
      </trkpt>
      <trkpt lat="46.94181" lon="-0.58544">
        <ele>124.001122</ele>
        <time>2012-02-04T14:59:19Z</time>
      </trkpt>
      <trkpt lat="46.94171" lon="-0.58544">
        <ele>124.001083</ele>
        <time>2012-02-04T14:59:21Z</time>
      </trkpt>
      <trkpt lat="46.94161" lon="-0.58545">
        <ele>124.001022</ele>
        <time>2012-02-04T14:59:23Z</time>
      </trkpt>
      <trkpt lat="46.94151" lon="-0.58547">
        <ele>124.000984</ele>
        <time>2012-02-04T14:59:25Z</time>
      </trkpt>
      <trkpt lat="46.94141" lon="-0.58548">
        <ele>124.000923</ele>
        <time>2012-02-04T14:59:27Z</time>
      </trkpt>
      <trkpt lat="46.94131" lon="-0.58548">
        <ele>123.000885</ele>
        <time>2012-02-04T14:59:29Z</time>
      </trkpt>
      <trkpt lat="46.94121" lon="-0.58549">
        <ele>123.000839</ele>
        <time>2012-02-04T14:59:31Z</time>
      </trkpt>
      <trkpt lat="46.94111" lon="-0.58549">
        <ele>124.000778</ele>
        <time>2012-02-04T14:59:33Z</time>
      </trkpt>
      <trkpt lat="46.94106" lon="-0.58549">
        <ele>124.000763</ele>
        <time>2012-02-04T14:59:34Z</time>
      </trkpt>
      <trkpt lat="46.941" lon="-0.5854">
        <ele>125.000809</ele>
        <time>2012-02-04T14:59:37Z</time>
      </trkpt>
      <trkpt lat="46.941" lon="-0.58525">
        <ele>126.000938</ele>
        <time>2012-02-04T14:59:39Z</time>
      </trkpt>
      <trkpt lat="46.94102" lon="-0.58509">
        <ele>126.001068</ele>
        <time>2012-02-04T14:59:41Z</time>
      </trkpt>
      <trkpt lat="46.94104" lon="-0.58494">
        <ele>127.001198</ele>
        <time>2012-02-04T14:59:43Z</time>
      </trkpt>
      <trkpt lat="46.94108" lon="-0.58478">
        <ele>127.00135</ele>
        <time>2012-02-04T14:59:45Z</time>
      </trkpt>
      <trkpt lat="46.94111" lon="-0.58461">
        <ele>127.001495</ele>
        <time>2012-02-04T14:59:47Z</time>
      </trkpt>
      <trkpt lat="46.94113" lon="-0.58441">
        <ele>126.001663</ele>
        <time>2012-02-04T14:59:49Z</time>
      </trkpt>
      <trkpt lat="46.94116" lon="-0.5842">
        <ele>126.001846</ele>
        <time>2012-02-04T14:59:51Z</time>
      </trkpt>
      <trkpt lat="46.94119" lon="-0.584">
        <ele>126.002022</ele>
        <time>2012-02-04T14:59:53Z</time>
      </trkpt>
      <trkpt lat="46.94121" lon="-0.5838">
        <ele>125.00219</ele>
        <time>2012-02-04T14:59:55Z</time>
      </trkpt>
      <trkpt lat="46.94124" lon="-0.58361">
        <ele>125.00235</ele>
        <time>2012-02-04T14:59:57Z</time>
      </trkpt>
      <trkpt lat="46.94126" lon="-0.58341">
        <ele>125.002533</ele>
        <time>2012-02-04T14:59:59Z</time>
      </trkpt>
      <trkpt lat="46.94129" lon="-0.58321">
        <ele>126.002701</ele>
        <time>2012-02-04T15:00:01Z</time>
      </trkpt>
      <trkpt lat="46.94132" lon="-0.58301">
        <ele>126.002869</ele>
        <time>2012-02-04T15:00:03Z</time>
      </trkpt>
      <trkpt lat="46.94135" lon="-0.58282">
        <ele>126.003044</ele>
        <time>2012-02-04T15:00:05Z</time>
      </trkpt>
      <trkpt lat="46.94137" lon="-0.58263">
        <ele>126.003189</ele>
        <time>2012-02-04T15:00:07Z</time>
      </trkpt>
      <trkpt lat="46.94139" lon="-0.58247">
        <ele>126.003342</ele>
        <time>2012-02-04T15:00:09Z</time>
      </trkpt>
      <trkpt lat="46.9414" lon="-0.58231">
        <ele>126.003464</ele>
        <time>2012-02-04T15:00:11Z</time>
      </trkpt>
      <trkpt lat="46.9414" lon="-0.58215">
        <ele>126.003601</ele>
        <time>2012-02-04T15:00:13Z</time>
      </trkpt>
      <trkpt lat="46.9414" lon="-0.58198">
        <ele>126.003738</ele>
        <time>2012-02-04T15:00:15Z</time>
      </trkpt>
      <trkpt lat="46.94141" lon="-0.58179">
        <ele>126.003876</ele>
        <time>2012-02-04T15:00:17Z</time>
      </trkpt>
      <trkpt lat="46.9414" lon="-0.58159">
        <ele>126.004044</ele>
        <time>2012-02-04T15:00:19Z</time>
      </trkpt>
      <trkpt lat="46.9414" lon="-0.58139">
        <ele>126.004196</ele>
        <time>2012-02-04T15:00:21Z</time>
      </trkpt>
      <trkpt lat="46.94138" lon="-0.58119">
        <ele>126.004356</ele>
        <time>2012-02-04T15:00:23Z</time>
      </trkpt>
      <trkpt lat="46.94136" lon="-0.58098">
        <ele>126.004517</ele>
        <time>2012-02-04T15:00:25Z</time>
      </trkpt>
      <trkpt lat="46.94135" lon="-0.58075">
        <ele>126.0047</ele>
        <time>2012-02-04T15:00:27Z</time>
      </trkpt>
      <trkpt lat="46.94133" lon="-0.58052">
        <ele>126.004868</ele>
        <time>2012-02-04T15:00:29Z</time>
      </trkpt>
      <trkpt lat="46.94129" lon="-0.58027">
        <ele>126.005051</ele>
        <time>2012-02-04T15:00:31Z</time>
      </trkpt>
      <trkpt lat="46.94122" lon="-0.58004">
        <ele>125.005203</ele>
        <time>2012-02-04T15:00:33Z</time>
      </trkpt>
      <trkpt lat="46.94115" lon="-0.57984">
        <ele>124.005341</ele>
        <time>2012-02-04T15:00:35Z</time>
      </trkpt>
      <trkpt lat="46.94109" lon="-0.57965">
        <ele>124.00547</ele>
        <time>2012-02-04T15:00:37Z</time>
      </trkpt>
      <trkpt lat="46.94104" lon="-0.5795">
        <ele>124.005569</ele>
        <time>2012-02-04T15:00:39Z</time>
      </trkpt>
      <trkpt lat="46.94113" lon="-0.57938">
        <ele>125.005707</ele>
        <time>2012-02-04T15:00:43Z</time>
      </trkpt>
      <trkpt lat="46.94123" lon="-0.57932">
        <ele>127.005798</ele>
        <time>2012-02-04T15:00:46Z</time>
      </trkpt>
      <trkpt lat="46.94133" lon="-0.57934">
        <ele>126.005821</ele>
        <time>2012-02-04T15:00:48Z</time>
      </trkpt>
      <trkpt lat="46.94143" lon="-0.57936">
        <ele>126.005844</ele>
        <time>2012-02-04T15:00:50Z</time>
      </trkpt>
      <trkpt lat="46.94149" lon="-0.57937">
        <ele>126.005859</ele>
        <time>2012-02-04T15:00:51Z</time>
      </trkpt>
      <trkpt lat="46.94159" lon="-0.57942">
        <ele>125.005875</ele>
        <time>2012-02-04T15:00:53Z</time>
      </trkpt>
      <trkpt lat="46.94169" lon="-0.57951">
        <ele>124.005829</ele>
        <time>2012-02-04T15:00:55Z</time>
      </trkpt>
      <trkpt lat="46.94178" lon="-0.57964">
        <ele>125.005768</ele>
        <time>2012-02-04T15:00:57Z</time>
      </trkpt>
      <trkpt lat="46.94187" lon="-0.5798">
        <ele>125.005676</ele>
        <time>2012-02-04T15:00:59Z</time>
      </trkpt>
      <trkpt lat="46.94193" lon="-0.58">
        <ele>125.005554</ele>
        <time>2012-02-04T15:01:01Z</time>
      </trkpt>
      <trkpt lat="46.94198" lon="-0.58017">
        <ele>124.005417</ele>
        <time>2012-02-04T15:01:03Z</time>
      </trkpt>
      <trkpt lat="46.94202" lon="-0.58031">
        <ele>124.005333</ele>
        <time>2012-02-04T15:01:05Z</time>
      </trkpt>
      <trkpt lat="46.94207" lon="-0.58046">
        <ele>123.005234</ele>
        <time>2012-02-04T15:01:07Z</time>
      </trkpt>
      <trkpt lat="46.94212" lon="-0.5806">
        <ele>124.005142</ele>
        <time>2012-02-04T15:01:09Z</time>
      </trkpt>
      <trkpt lat="46.94218" lon="-0.58075">
        <ele>124.005051</ele>
        <time>2012-02-04T15:01:11Z</time>
      </trkpt>
      <trkpt lat="46.94224" lon="-0.58089">
        <ele>124.004959</ele>
        <time>2012-02-04T15:01:13Z</time>
      </trkpt>
      <trkpt lat="46.9423" lon="-0.58102">
        <ele>124.004883</ele>
        <time>2012-02-04T15:01:15Z</time>
      </trkpt>
      <trkpt lat="46.94237" lon="-0.58116">
        <ele>124.004807</ele>
        <time>2012-02-04T15:01:17Z</time>
      </trkpt>
      <trkpt lat="46.94243" lon="-0.58129">
        <ele>124.004723</ele>
        <time>2012-02-04T15:01:19Z</time>
      </trkpt>
      <trkpt lat="46.94248" lon="-0.58141">
        <ele>124.004639</ele>
        <time>2012-02-04T15:01:21Z</time>
      </trkpt>
      <trkpt lat="46.9425" lon="-0.58161">
        <ele>124.004501</ele>
        <time>2012-02-04T15:01:24Z</time>
      </trkpt>
      <trkpt lat="46.94252" lon="-0.58175">
        <ele>124.004395</ele>
        <time>2012-02-04T15:01:26Z</time>
      </trkpt>
      <trkpt lat="46.94254" lon="-0.58189">
        <ele>124.00428</ele>
        <time>2012-02-04T15:01:28Z</time>
      </trkpt>
      <trkpt lat="46.94257" lon="-0.58201">
        <ele>124.004204</ele>
        <time>2012-02-04T15:01:30Z</time>
      </trkpt>
      <trkpt lat="46.94263" lon="-0.58219">
        <ele>124.004089</ele>
        <time>2012-02-04T15:01:33Z</time>
      </trkpt>
      <trkpt lat="46.94269" lon="-0.58231">
        <ele>124.004013</ele>
        <time>2012-02-04T15:01:36Z</time>
      </trkpt>
      <trkpt lat="46.94277" lon="-0.58247">
        <ele>126.003922</ele>
        <time>2012-02-04T15:01:40Z</time>
      </trkpt>
      <trkpt lat="46.94279" lon="-0.58253">
        <ele>125.003891</ele>
        <time>2012-02-04T15:01:41Z</time>
      </trkpt>
      <trkpt lat="46.94282" lon="-0.58267">
        <ele>125.003792</ele>
        <time>2012-02-04T15:01:43Z</time>
      </trkpt>
      <trkpt lat="46.94286" lon="-0.5828">
        <ele>126.003693</ele>
        <time>2012-02-04T15:01:45Z</time>
      </trkpt>
      <trkpt lat="46.94289" lon="-0.58294">
        <ele>126.003586</ele>
        <time>2012-02-04T15:01:47Z</time>
      </trkpt>
      <trkpt lat="46.94292" lon="-0.58309">
        <ele>126.003479</ele>
        <time>2012-02-04T15:01:49Z</time>
      </trkpt>
      <trkpt lat="46.94297" lon="-0.58323">
        <ele>126.003387</ele>
        <time>2012-02-04T15:01:51Z</time>
      </trkpt>
      <trkpt lat="46.94303" lon="-0.58336">
        <ele>127.003311</ele>
        <time>2012-02-04T15:01:53Z</time>
      </trkpt>
      <trkpt lat="46.94308" lon="-0.58349">
        <ele>128.003235</ele>
        <time>2012-02-04T15:01:55Z</time>
      </trkpt>
      <trkpt lat="46.9431" lon="-0.58365">
        <ele>128.003113</ele>
        <time>2012-02-04T15:01:57Z</time>
      </trkpt>
      <trkpt lat="46.94313" lon="-0.5838">
        <ele>127.003006</ele>
        <time>2012-02-04T15:01:59Z</time>
      </trkpt>
      <trkpt lat="46.94317" lon="-0.58393">
        <ele>126.002914</ele>
        <time>2012-02-04T15:02:01Z</time>
      </trkpt>
      <trkpt lat="46.94321" lon="-0.58399">
        <ele>126.002884</ele>
        <time>2012-02-04T15:02:02Z</time>
      </trkpt>
      <trkpt lat="46.9433" lon="-0.58405">
        <ele>126.002876</ele>
        <time>2012-02-04T15:02:04Z</time>
      </trkpt>
      <trkpt lat="46.94342" lon="-0.58415">
        <ele>127.002846</ele>
        <time>2012-02-04T15:02:07Z</time>
      </trkpt>
      <trkpt lat="46.94346" lon="-0.58427">
        <ele>127.002762</ele>
        <time>2012-02-04T15:02:09Z</time>
      </trkpt>
      <trkpt lat="46.94349" lon="-0.58441">
        <ele>127.002655</ele>
        <time>2012-02-04T15:02:11Z</time>
      </trkpt>
      <trkpt lat="46.94353" lon="-0.58459">
        <ele>127.002548</ele>
        <time>2012-02-04T15:02:14Z</time>
      </trkpt>
      <trkpt lat="46.94357" lon="-0.58472">
        <ele>127.002449</ele>
        <time>2012-02-04T15:02:17Z</time>
      </trkpt>
      <trkpt lat="46.94361" lon="-0.58485">
        <ele>128.002365</ele>
        <time>2012-02-04T15:02:20Z</time>
      </trkpt>
      <trkpt lat="46.94371" lon="-0.58498">
        <ele>129.002289</ele>
        <time>2012-02-04T15:02:23Z</time>
      </trkpt>
      <trkpt lat="46.94381" lon="-0.58504">
        <ele>131.002304</ele>
        <time>2012-02-04T15:02:26Z</time>
      </trkpt>
      <trkpt lat="46.94391" lon="-0.58516">
        <ele>131.002243</ele>
        <time>2012-02-04T15:02:29Z</time>
      </trkpt>
      <trkpt lat="46.94397" lon="-0.58532">
        <ele>132.002136</ele>
        <time>2012-02-04T15:02:32Z</time>
      </trkpt>
      <trkpt lat="46.94403" lon="-0.58549">
        <ele>132.002029</ele>
        <time>2012-02-04T15:02:35Z</time>
      </trkpt>
      <trkpt lat="46.9441" lon="-0.58558">
        <ele>133.001984</ele>
        <time>2012-02-04T15:02:38Z</time>
      </trkpt>
      <trkpt lat="46.94421" lon="-0.58559">
        <ele>134.002014</ele>
        <time>2012-02-04T15:02:40Z</time>
      </trkpt>
      <trkpt lat="46.9443" lon="-0.58562">
        <ele>136.002045</ele>
        <time>2012-02-04T15:02:42Z</time>
      </trkpt>
      <trkpt lat="46.94436" lon="-0.58572">
        <ele>137.001999</ele>
        <time>2012-02-04T15:02:46Z</time>
      </trkpt>
      <trkpt lat="46.94437" lon="-0.58591">
        <ele>138.001831</ele>
        <time>2012-02-04T15:02:49Z</time>
      </trkpt>
      <trkpt lat="46.94438" lon="-0.58607">
        <ele>139.001709</ele>
        <time>2012-02-04T15:02:52Z</time>
      </trkpt>
      <trkpt lat="46.9444" lon="-0.58623">
        <ele>139.001587</ele>
        <time>2012-02-04T15:02:55Z</time>
      </trkpt>
      <trkpt lat="46.94442" lon="-0.58642">
        <ele>139.00145</ele>
        <time>2012-02-04T15:02:58Z</time>
      </trkpt>
      <trkpt lat="46.94443" lon="-0.58658">
        <ele>140.001312</ele>
        <time>2012-02-04T15:03:01Z</time>
      </trkpt>
      <trkpt lat="46.94445" lon="-0.58662">
        <ele>141.001297</ele>
        <time>2012-02-04T15:03:02Z</time>
      </trkpt>
      <trkpt lat="46.94449" lon="-0.58675">
        <ele>141.001205</ele>
        <time>2012-02-04T15:03:05Z</time>
      </trkpt>
      <trkpt lat="46.94452" lon="-0.58688">
        <ele>142.001114</ele>
        <time>2012-02-04T15:03:08Z</time>
      </trkpt>
      <trkpt lat="46.94451" lon="-0.58693">
        <ele>143.001068</ele>
        <time>2012-02-04T15:03:09Z</time>
      </trkpt>
      <trkpt lat="46.94448" lon="-0.58711">
        <ele>142.000916</ele>
        <time>2012-02-04T15:03:14Z</time>
      </trkpt>
      <trkpt lat="46.94448" lon="-0.58716">
        <ele>142.000885</ele>
        <time>2012-02-04T15:03:15Z</time>
      </trkpt>
      <trkpt lat="46.94448" lon="-0.58731">
        <ele>142.000763</ele>
        <time>2012-02-04T15:03:18Z</time>
      </trkpt>
      <trkpt lat="46.94449" lon="-0.58746">
        <ele>140.000641</ele>
        <time>2012-02-04T15:03:21Z</time>
      </trkpt>
      <trkpt lat="46.94449" lon="-0.58764">
        <ele>140.000504</ele>
        <time>2012-02-04T15:03:24Z</time>
      </trkpt>
      <trkpt lat="46.94449" lon="-0.58778">
        <ele>140.000397</ele>
        <time>2012-02-04T15:03:26Z</time>
      </trkpt>
      <trkpt lat="46.94446" lon="-0.58791">
        <ele>140.000259</ele>
        <time>2012-02-04T15:03:28Z</time>
      </trkpt>
      <trkpt lat="46.94437" lon="-0.58804">
        <ele>140.000122</ele>
        <time>2012-02-04T15:03:31Z</time>
      </trkpt>
      <trkpt lat="46.94427" lon="-0.58816">
        <ele>140</ele>
        <time>2012-02-04T15:03:34Z</time>
      </trkpt>
      <trkpt lat="46.94427" lon="-0.58817">
        <ele>138.999969</ele>
        <time>2012-02-04T15:03:35Z</time>
      </trkpt>
      <trkpt lat="46.94428" lon="-0.58831">
        <ele>136.999878</ele>
        <time>2012-02-04T15:03:39Z</time>
      </trkpt>
      <trkpt lat="46.9443" lon="-0.58844">
        <ele>135.999771</ele>
        <time>2012-02-04T15:03:41Z</time>
      </trkpt>
      <trkpt lat="46.94432" lon="-0.58862">
        <ele>134.999634</ele>
        <time>2012-02-04T15:03:43Z</time>
      </trkpt>
      <trkpt lat="46.9443" lon="-0.58881">
        <ele>133.999481</ele>
        <time>2012-02-04T15:03:45Z</time>
      </trkpt>
      <trkpt lat="46.94423" lon="-0.58891">
        <ele>131.999359</ele>
        <time>2012-02-04T15:03:47Z</time>
      </trkpt>
      <trkpt lat="46.94415" lon="-0.58894">
        <ele>129.999313</ele>
        <time>2012-02-04T15:03:49Z</time>
      </trkpt>
      <trkpt lat="46.94406" lon="-0.589">
        <ele>127.999237</ele>
        <time>2012-02-04T15:03:52Z</time>
      </trkpt>
      <trkpt lat="46.94405" lon="-0.58903">
        <ele>127.999199</ele>
        <time>2012-02-04T15:03:53Z</time>
      </trkpt>
      <trkpt lat="46.94412" lon="-0.58914">
        <ele>126.99913</ele>
        <time>2012-02-04T15:03:58Z</time>
      </trkpt>
      <trkpt lat="46.94414" lon="-0.58914">
        <ele>126.999146</ele>
        <time>2012-02-04T15:03:59Z</time>
      </trkpt>
      <trkpt lat="46.94421" lon="-0.58923">
        <ele>126.9991</ele>
        <time>2012-02-04T15:04:03Z</time>
      </trkpt>
      <trkpt lat="46.94424" lon="-0.58937">
        <ele>128.998993</ele>
        <time>2012-02-04T15:04:06Z</time>
      </trkpt>
      <trkpt lat="46.94427" lon="-0.58952">
        <ele>128.998886</ele>
        <time>2012-02-04T15:04:09Z</time>
      </trkpt>
      <trkpt lat="46.94436" lon="-0.5897">
        <ele>128.998795</ele>
        <time>2012-02-04T15:04:18Z</time>
      </trkpt>
      <trkpt lat="46.94442" lon="-0.5898">
        <ele>127.998734</ele>
        <time>2012-02-04T15:04:21Z</time>
      </trkpt>
      <trkpt lat="46.94448" lon="-0.58994">
        <ele>126.99865</ele>
        <time>2012-02-04T15:04:24Z</time>
      </trkpt>
      <trkpt lat="46.9445" lon="-0.59">
        <ele>125.998611</ele>
        <time>2012-02-04T15:04:25Z</time>
      </trkpt>
      <trkpt lat="46.94457" lon="-0.59015">
        <ele>123.99852</ele>
        <time>2012-02-04T15:04:28Z</time>
      </trkpt>
      <trkpt lat="46.94465" lon="-0.59026">
        <ele>120.998459</ele>
        <time>2012-02-04T15:04:31Z</time>
      </trkpt>
      <trkpt lat="46.94473" lon="-0.59036">
        <ele>119.998413</ele>
        <time>2012-02-04T15:04:34Z</time>
      </trkpt>
      <trkpt lat="46.94483" lon="-0.59045">
        <ele>119.998383</ele>
        <time>2012-02-04T15:04:37Z</time>
      </trkpt>
      <trkpt lat="46.94493" lon="-0.59054">
        <ele>119.99836</ele>
        <time>2012-02-04T15:04:40Z</time>
      </trkpt>
      <trkpt lat="46.94504" lon="-0.59064">
        <ele>118.998329</ele>
        <time>2012-02-04T15:04:43Z</time>
      </trkpt>
      <trkpt lat="46.94512" lon="-0.59071">
        <ele>118.998306</ele>
        <time>2012-02-04T15:04:45Z</time>
      </trkpt>
      <trkpt lat="46.9452" lon="-0.59078">
        <ele>118.998276</ele>
        <time>2012-02-04T15:04:47Z</time>
      </trkpt>
      <trkpt lat="46.94528" lon="-0.59085">
        <ele>118.99826</ele>
        <time>2012-02-04T15:04:49Z</time>
      </trkpt>
      <trkpt lat="46.94539" lon="-0.59095">
        <ele>118.998215</ele>
        <time>2012-02-04T15:04:52Z</time>
      </trkpt>
      <trkpt lat="46.94546" lon="-0.59106">
        <ele>119.998154</ele>
        <time>2012-02-04T15:04:55Z</time>
      </trkpt>
      <trkpt lat="46.94552" lon="-0.59118">
        <ele>120.998093</ele>
        <time>2012-02-04T15:04:58Z</time>
      </trkpt>
      <trkpt lat="46.94562" lon="-0.59122">
        <ele>122.998108</ele>
        <time>2012-02-04T15:05:02Z</time>
      </trkpt>
      <trkpt lat="46.9457" lon="-0.59112">
        <ele>124.998215</ele>
        <time>2012-02-04T15:05:05Z</time>
      </trkpt>
      <trkpt lat="46.94579" lon="-0.59101">
        <ele>125.998337</ele>
        <time>2012-02-04T15:05:08Z</time>
      </trkpt>
      <trkpt lat="46.94587" lon="-0.59092">
        <ele>126.998451</ele>
        <time>2012-02-04T15:05:11Z</time>
      </trkpt>
      <trkpt lat="46.94595" lon="-0.59083">
        <ele>128.99855</ele>
        <time>2012-02-04T15:05:14Z</time>
      </trkpt>
      <trkpt lat="46.94605" lon="-0.59074">
        <ele>130.998657</ele>
        <time>2012-02-04T15:05:17Z</time>
      </trkpt>
      <trkpt lat="46.94614" lon="-0.59066">
        <ele>132.998779</ele>
        <time>2012-02-04T15:05:20Z</time>
      </trkpt>
      <trkpt lat="46.94617" lon="-0.59062">
        <ele>133.99881</ele>
        <time>2012-02-04T15:05:21Z</time>
      </trkpt>
      <trkpt lat="46.94627" lon="-0.59052">
        <ele>135.998932</ele>
        <time>2012-02-04T15:05:24Z</time>
      </trkpt>
      <trkpt lat="46.94637" lon="-0.59041">
        <ele>135.999084</ele>
        <time>2012-02-04T15:05:27Z</time>
      </trkpt>
      <trkpt lat="46.94646" lon="-0.59031">
        <ele>136.999191</ele>
        <time>2012-02-04T15:05:30Z</time>
      </trkpt>
      <trkpt lat="46.94654" lon="-0.59022">
        <ele>137.999298</ele>
        <time>2012-02-04T15:05:33Z</time>
      </trkpt>
      <trkpt lat="46.94661" lon="-0.59013">
        <ele>138.99939</ele>
        <time>2012-02-04T15:05:36Z</time>
      </trkpt>
      <trkpt lat="46.94663" lon="-0.58997">
        <ele>138.999542</ele>
        <time>2012-02-04T15:05:40Z</time>
      </trkpt>
      <trkpt lat="46.94663" lon="-0.58982">
        <ele>139.999664</ele>
        <time>2012-02-04T15:05:43Z</time>
      </trkpt>
      <trkpt lat="46.94668" lon="-0.58968">
        <ele>139.999786</ele>
        <time>2012-02-04T15:05:46Z</time>
      </trkpt>
      <trkpt lat="46.94675" lon="-0.58954">
        <ele>139.999924</ele>
        <time>2012-02-04T15:05:50Z</time>
      </trkpt>
      <trkpt lat="46.94677" lon="-0.58952">
        <ele>139.999939</ele>
        <time>2012-02-04T15:05:51Z</time>
      </trkpt>
      <trkpt lat="46.94687" lon="-0.58944">
        <ele>141.000046</ele>
        <time>2012-02-04T15:05:55Z</time>
      </trkpt>
      <trkpt lat="46.94693" lon="-0.5894">
        <ele>142.000122</ele>
        <time>2012-02-04T15:05:57Z</time>
      </trkpt>
      <trkpt lat="46.94702" lon="-0.58934">
        <ele>143.000214</ele>
        <time>2012-02-04T15:06:00Z</time>
      </trkpt>
      <trkpt lat="46.94712" lon="-0.5893">
        <ele>143.000275</ele>
        <time>2012-02-04T15:06:03Z</time>
      </trkpt>
      <trkpt lat="46.94722" lon="-0.58925">
        <ele>144.000366</ele>
        <time>2012-02-04T15:06:06Z</time>
      </trkpt>
      <trkpt lat="46.94732" lon="-0.58921">
        <ele>145.000427</ele>
        <time>2012-02-04T15:06:09Z</time>
      </trkpt>
      <trkpt lat="46.94744" lon="-0.58918">
        <ele>145.000504</ele>
        <time>2012-02-04T15:06:12Z</time>
      </trkpt>
      <trkpt lat="46.94756" lon="-0.58914">
        <ele>145.00058</ele>
        <time>2012-02-04T15:06:15Z</time>
      </trkpt>
      <trkpt lat="46.94767" lon="-0.5891">
        <ele>145.000671</ele>
        <time>2012-02-04T15:06:18Z</time>
      </trkpt>
      <trkpt lat="46.94776" lon="-0.58905">
        <ele>145.000748</ele>
        <time>2012-02-04T15:06:21Z</time>
      </trkpt>
      <trkpt lat="46.94786" lon="-0.58897">
        <ele>145.000854</ele>
        <time>2012-02-04T15:06:25Z</time>
      </trkpt>
      <trkpt lat="46.94794" lon="-0.58891">
        <ele>145.000946</ele>
        <time>2012-02-04T15:06:29Z</time>
      </trkpt>
      <trkpt lat="46.94802" lon="-0.58884">
        <ele>146.001038</ele>
        <time>2012-02-04T15:06:33Z</time>
      </trkpt>
      <trkpt lat="46.94812" lon="-0.58875">
        <ele>148.001144</ele>
        <time>2012-02-04T15:06:37Z</time>
      </trkpt>
      <trkpt lat="46.94821" lon="-0.58866">
        <ele>148.001266</ele>
        <time>2012-02-04T15:06:41Z</time>
      </trkpt>
      <trkpt lat="46.94823" lon="-0.58863">
        <ele>149.001282</ele>
        <time>2012-02-04T15:06:42Z</time>
      </trkpt>
      <trkpt lat="46.94832" lon="-0.58852">
        <ele>151.001419</ele>
        <time>2012-02-04T15:06:46Z</time>
      </trkpt>
      <trkpt lat="46.9484" lon="-0.5884">
        <ele>151.001541</ele>
        <time>2012-02-04T15:06:50Z</time>
      </trkpt>
      <trkpt lat="46.94847" lon="-0.58828">
        <ele>152.001663</ele>
        <time>2012-02-04T15:06:54Z</time>
      </trkpt>
      <trkpt lat="46.94852" lon="-0.58815">
        <ele>153.001801</ele>
        <time>2012-02-04T15:06:59Z</time>
      </trkpt>
      <trkpt lat="46.94857" lon="-0.58802">
        <ele>156.001923</ele>
        <time>2012-02-04T15:07:05Z</time>
      </trkpt>
      <trkpt lat="46.9486" lon="-0.58787">
        <ele>160.00206</ele>
        <time>2012-02-04T15:07:11Z</time>
      </trkpt>
      <trkpt lat="46.94857" lon="-0.58776">
        <ele>161.002136</ele>
        <time>2012-02-04T15:07:14Z</time>
      </trkpt>
      <trkpt lat="46.94853" lon="-0.5876">
        <ele>162.002243</ele>
        <time>2012-02-04T15:07:17Z</time>
      </trkpt>
      <trkpt lat="46.94851" lon="-0.58746">
        <ele>163.002335</ele>
        <time>2012-02-04T15:07:20Z</time>
      </trkpt>
      <trkpt lat="46.94845" lon="-0.58728">
        <ele>163.002472</ele>
        <time>2012-02-04T15:07:25Z</time>
      </trkpt>
      <trkpt lat="46.94842" lon="-0.58721">
        <ele>164.002502</ele>
        <time>2012-02-04T15:07:27Z</time>
      </trkpt>
      <trkpt lat="46.94837" lon="-0.58709">
        <ele>164.002594</ele>
        <time>2012-02-04T15:07:30Z</time>
      </trkpt>
      <trkpt lat="46.94831" lon="-0.58693">
        <ele>164.002686</ele>
        <time>2012-02-04T15:07:33Z</time>
      </trkpt>
      <trkpt lat="46.94826" lon="-0.58677">
        <ele>164.002777</ele>
        <time>2012-02-04T15:07:36Z</time>
      </trkpt>
      <trkpt lat="46.9482" lon="-0.58659">
        <ele>163.002914</ele>
        <time>2012-02-04T15:07:39Z</time>
      </trkpt>
      <trkpt lat="46.94819" lon="-0.58652">
        <ele>163.00296</ele>
        <time>2012-02-04T15:07:40Z</time>
      </trkpt>
      <trkpt lat="46.94815" lon="-0.5864">
        <ele>163.003052</ele>
        <time>2012-02-04T15:07:42Z</time>
      </trkpt>
      <trkpt lat="46.94811" lon="-0.58627">
        <ele>163.003143</ele>
        <time>2012-02-04T15:07:44Z</time>
      </trkpt>
      <trkpt lat="46.94807" lon="-0.58614">
        <ele>163.003204</ele>
        <time>2012-02-04T15:07:46Z</time>
      </trkpt>
      <trkpt lat="46.94803" lon="-0.58603">
        <ele>162.003296</ele>
        <time>2012-02-04T15:07:48Z</time>
      </trkpt>
      <trkpt lat="46.94797" lon="-0.58586">
        <ele>161.003403</ele>
        <time>2012-02-04T15:07:51Z</time>
      </trkpt>
      <trkpt lat="46.94789" lon="-0.5857">
        <ele>160.00351</ele>
        <time>2012-02-04T15:07:54Z</time>
      </trkpt>
      <trkpt lat="46.94784" lon="-0.58559">
        <ele>160.003555</ele>
        <time>2012-02-04T15:07:56Z</time>
      </trkpt>
      <trkpt lat="46.94782" lon="-0.58553">
        <ele>160.003601</ele>
        <time>2012-02-04T15:07:57Z</time>
      </trkpt>
      <trkpt lat="46.94777" lon="-0.5854">
        <ele>159.003677</ele>
        <time>2012-02-04T15:07:59Z</time>
      </trkpt>
      <trkpt lat="46.94772" lon="-0.58528">
        <ele>160.003769</ele>
        <time>2012-02-04T15:08:01Z</time>
      </trkpt>
      <trkpt lat="46.94767" lon="-0.58514">
        <ele>159.00386</ele>
        <time>2012-02-04T15:08:03Z</time>
      </trkpt>
      <trkpt lat="46.94762" lon="-0.585">
        <ele>160.003937</ele>
        <time>2012-02-04T15:08:05Z</time>
      </trkpt>
      <trkpt lat="46.9476" lon="-0.58493">
        <ele>160.003998</ele>
        <time>2012-02-04T15:08:06Z</time>
      </trkpt>
      <trkpt lat="46.94755" lon="-0.58478">
        <ele>160.004089</ele>
        <time>2012-02-04T15:08:08Z</time>
      </trkpt>
      <trkpt lat="46.9475" lon="-0.58463">
        <ele>160.004181</ele>
        <time>2012-02-04T15:08:10Z</time>
      </trkpt>
      <trkpt lat="46.94746" lon="-0.58449">
        <ele>160.004288</ele>
        <time>2012-02-04T15:08:12Z</time>
      </trkpt>
      <trkpt lat="46.9474" lon="-0.58434">
        <ele>160.004395</ele>
        <time>2012-02-04T15:08:14Z</time>
      </trkpt>
      <trkpt lat="46.94735" lon="-0.58418">
        <ele>160.004486</ele>
        <time>2012-02-04T15:08:16Z</time>
      </trkpt>
      <trkpt lat="46.94732" lon="-0.58411">
        <ele>160.004532</ele>
        <time>2012-02-04T15:08:17Z</time>
      </trkpt>
      <trkpt lat="46.94727" lon="-0.58395">
        <ele>160.004639</ele>
        <time>2012-02-04T15:08:19Z</time>
      </trkpt>
      <trkpt lat="46.94722" lon="-0.58381">
        <ele>160.00473</ele>
        <time>2012-02-04T15:08:21Z</time>
      </trkpt>
      <trkpt lat="46.94718" lon="-0.58367">
        <ele>160.004822</ele>
        <time>2012-02-04T15:08:23Z</time>
      </trkpt>
      <trkpt lat="46.94716" lon="-0.58357">
        <ele>160.004883</ele>
        <time>2012-02-04T15:08:25Z</time>
      </trkpt>
      <trkpt lat="46.94711" lon="-0.58332">
        <ele>159.005066</ele>
        <time>2012-02-04T15:10:19Z</time>
      </trkpt>
      <trkpt lat="46.94711" lon="-0.58332">
        <ele>159.005066</ele>
        <time>2012-02-04T15:10:20Z</time>
      </trkpt>
      <trkpt lat="46.94711" lon="-0.58332">
        <ele>159.005066</ele>
        <time>2012-02-04T15:10:20Z</time>
      </trkpt>
      <trkpt lat="46.94711" lon="-0.58332">
        <ele>159.005066</ele>
        <time>2012-02-04T15:10:21Z</time>
      </trkpt>
      <trkpt lat="46.94711" lon="-0.58332">
        <ele>159.005066</ele>
        <time>2012-02-04T15:10:22Z</time>
      </trkpt>
      <trkpt lat="46.94711" lon="-0.58332">
        <ele>159.005066</ele>
        <time>2012-02-04T15:10:23Z</time>
      </trkpt>
      <trkpt lat="46.94711" lon="-0.58332">
        <ele>159.005066</ele>
        <time>2012-02-04T15:10:24Z</time>
      </trkpt>
      <trkpt lat="46.94711" lon="-0.58332">
        <ele>159.005066</ele>
        <time>2012-02-04T15:10:25Z</time>
      </trkpt>
      <trkpt lat="46.94711" lon="-0.58332">
        <ele>159.005066</ele>
        <time>2012-02-04T15:10:26Z</time>
      </trkpt>
      <trkpt lat="46.94711" lon="-0.58332">
        <ele>159.005066</ele>
        <time>2012-02-04T15:10:27Z</time>
      </trkpt>
      <trkpt lat="46.94711" lon="-0.58332">
        <ele>159.005066</ele>
        <time>2012-02-04T15:10:28Z</time>
      </trkpt>
      <trkpt lat="46.94708" lon="-0.58318">
        <ele>142.005188</ele>
        <time>2012-02-04T15:10:42Z</time>
      </trkpt>
      <trkpt lat="46.947" lon="-0.58304">
        <ele>142.005249</ele>
        <time>2012-02-04T15:10:45Z</time>
      </trkpt>
      <trkpt lat="46.94694" lon="-0.58288">
        <ele>142.005356</ele>
        <time>2012-02-04T15:10:48Z</time>
      </trkpt>
      <trkpt lat="46.9469" lon="-0.58275">
        <ele>143.005432</ele>
        <time>2012-02-04T15:10:50Z</time>
      </trkpt>
      <trkpt lat="46.94685" lon="-0.58259">
        <ele>144.005554</ele>
        <time>2012-02-04T15:10:52Z</time>
      </trkpt>
      <trkpt lat="46.94679" lon="-0.58241">
        <ele>144.005676</ele>
        <time>2012-02-04T15:10:54Z</time>
      </trkpt>
      <trkpt lat="46.94672" lon="-0.58225">
        <ele>145.005783</ele>
        <time>2012-02-04T15:10:56Z</time>
      </trkpt>
      <trkpt lat="46.9466" lon="-0.58218">
        <ele>145.005768</ele>
        <time>2012-02-04T15:10:58Z</time>
      </trkpt>
      <trkpt lat="46.94647" lon="-0.58216">
        <ele>145.005737</ele>
        <time>2012-02-04T15:11:00Z</time>
      </trkpt>
      <trkpt lat="46.9464" lon="-0.58214">
        <ele>145.005722</ele>
        <time>2012-02-04T15:11:02Z</time>
      </trkpt>
      <trkpt lat="46.94625" lon="-0.58204">
        <ele>145.005737</ele>
        <time>2012-02-04T15:11:04Z</time>
      </trkpt>
      <trkpt lat="46.94614" lon="-0.58193">
        <ele>146.005783</ele>
        <time>2012-02-04T15:11:05Z</time>
      </trkpt>
      <trkpt lat="46.94604" lon="-0.58183">
        <ele>146.005814</ele>
        <time>2012-02-04T15:11:06Z</time>
      </trkpt>
      <trkpt lat="46.94595" lon="-0.58175">
        <ele>146.005859</ele>
        <time>2012-02-04T15:11:07Z</time>
      </trkpt>
      <trkpt lat="46.94586" lon="-0.58167">
        <ele>146.005875</ele>
        <time>2012-02-04T15:11:08Z</time>
      </trkpt>
      <trkpt lat="46.94576" lon="-0.58159">
        <ele>147.00589</ele>
        <time>2012-02-04T15:11:09Z</time>
      </trkpt>
      <trkpt lat="46.94566" lon="-0.58152">
        <ele>147.00589</ele>
        <time>2012-02-04T15:11:10Z</time>
      </trkpt>
      <trkpt lat="46.94555" lon="-0.58146">
        <ele>147.00592</ele>
        <time>2012-02-04T15:11:11Z</time>
      </trkpt>
      <trkpt lat="46.94544" lon="-0.5814">
        <ele>147.00592</ele>
        <time>2012-02-04T15:11:12Z</time>
      </trkpt>
      <trkpt lat="46.94533" lon="-0.58134">
        <ele>147.005905</ele>
        <time>2012-02-04T15:11:13Z</time>
      </trkpt>
      <trkpt lat="46.94521" lon="-0.58128">
        <ele>148.005905</ele>
        <time>2012-02-04T15:11:14Z</time>
      </trkpt>
      <trkpt lat="46.9451" lon="-0.58122">
        <ele>148.005905</ele>
        <time>2012-02-04T15:11:15Z</time>
      </trkpt>
      <trkpt lat="46.94499" lon="-0.58117">
        <ele>148.005905</ele>
        <time>2012-02-04T15:11:16Z</time>
      </trkpt>
      <trkpt lat="46.94487" lon="-0.58111">
        <ele>147.005905</ele>
        <time>2012-02-04T15:11:17Z</time>
      </trkpt>
      <trkpt lat="46.94476" lon="-0.58105">
        <ele>147.00589</ele>
        <time>2012-02-04T15:11:18Z</time>
      </trkpt>
      <trkpt lat="46.94464" lon="-0.58098">
        <ele>147.005905</ele>
        <time>2012-02-04T15:11:19Z</time>
      </trkpt>
      <trkpt lat="46.94453" lon="-0.58092">
        <ele>147.005905</ele>
        <time>2012-02-04T15:11:20Z</time>
      </trkpt>
      <trkpt lat="46.94442" lon="-0.58087">
        <ele>147.005905</ele>
        <time>2012-02-04T15:11:21Z</time>
      </trkpt>
      <trkpt lat="46.94432" lon="-0.58081">
        <ele>147.005905</ele>
        <time>2012-02-04T15:11:22Z</time>
      </trkpt>
      <trkpt lat="46.94422" lon="-0.58076">
        <ele>146.00592</ele>
        <time>2012-02-04T15:11:23Z</time>
      </trkpt>
      <trkpt lat="46.94413" lon="-0.58071">
        <ele>146.005905</ele>
        <time>2012-02-04T15:11:24Z</time>
      </trkpt>
      <trkpt lat="46.94404" lon="-0.58065">
        <ele>146.00592</ele>
        <time>2012-02-04T15:11:25Z</time>
      </trkpt>
      <trkpt lat="46.94396" lon="-0.58058">
        <ele>145.005936</ele>
        <time>2012-02-04T15:11:26Z</time>
      </trkpt>
      <trkpt lat="46.94385" lon="-0.58041">
        <ele>144.006042</ele>
        <time>2012-02-04T15:11:28Z</time>
      </trkpt>
      <trkpt lat="46.94376" lon="-0.58027">
        <ele>143.006104</ele>
        <time>2012-02-04T15:11:30Z</time>
      </trkpt>
      <trkpt lat="46.94367" lon="-0.58025">
        <ele>142.006073</ele>
        <time>2012-02-04T15:11:32Z</time>
      </trkpt>
      <trkpt lat="46.94358" lon="-0.58032">
        <ele>142.005997</ele>
        <time>2012-02-04T15:11:34Z</time>
      </trkpt>
      <trkpt lat="46.94349" lon="-0.5804">
        <ele>142.00589</ele>
        <time>2012-02-04T15:11:36Z</time>
      </trkpt>
      <trkpt lat="46.94345" lon="-0.58045">
        <ele>142.005829</ele>
        <time>2012-02-04T15:11:37Z</time>
      </trkpt>
      <trkpt lat="46.94342" lon="-0.58061">
        <ele>142.005676</ele>
        <time>2012-02-04T15:11:39Z</time>
      </trkpt>
      <trkpt lat="46.94335" lon="-0.58077">
        <ele>143.005524</ele>
        <time>2012-02-04T15:11:41Z</time>
      </trkpt>
      <trkpt lat="46.94322" lon="-0.5809">
        <ele>143.005371</ele>
        <time>2012-02-04T15:11:43Z</time>
      </trkpt>
      <trkpt lat="46.9431" lon="-0.58103">
        <ele>142.005203</ele>
        <time>2012-02-04T15:11:45Z</time>
      </trkpt>
      <trkpt lat="46.94298" lon="-0.58116">
        <ele>141.005066</ele>
        <time>2012-02-04T15:11:47Z</time>
      </trkpt>
      <trkpt lat="46.94284" lon="-0.58125">
        <ele>140.004929</ele>
        <time>2012-02-04T15:11:49Z</time>
      </trkpt>
      <trkpt lat="46.94271" lon="-0.58135">
        <ele>139.004791</ele>
        <time>2012-02-04T15:11:51Z</time>
      </trkpt>
      <trkpt lat="46.94262" lon="-0.58145">
        <ele>136.004669</ele>
        <time>2012-02-04T15:11:53Z</time>
      </trkpt>
      <trkpt lat="46.94258" lon="-0.58158">
        <ele>135.004562</ele>
        <time>2012-02-04T15:11:56Z</time>
      </trkpt>
      <trkpt lat="46.94258" lon="-0.58172">
        <ele>135.00444</ele>
        <time>2012-02-04T15:11:59Z</time>
      </trkpt>
      <trkpt lat="46.94258" lon="-0.58183">
        <ele>135.004349</ele>
        <time>2012-02-04T15:12:01Z</time>
      </trkpt>
      <trkpt lat="46.94261" lon="-0.58199">
        <ele>135.004242</ele>
        <time>2012-02-04T15:12:04Z</time>
      </trkpt>
      <trkpt lat="46.94266" lon="-0.58213">
        <ele>136.00415</ele>
        <time>2012-02-04T15:12:07Z</time>
      </trkpt>
      <trkpt lat="46.94271" lon="-0.58222">
        <ele>136.004089</ele>
        <time>2012-02-04T15:12:09Z</time>
      </trkpt>
      <trkpt lat="46.94279" lon="-0.58235">
        <ele>136.004028</ele>
        <time>2012-02-04T15:12:12Z</time>
      </trkpt>
      <trkpt lat="46.94283" lon="-0.58248">
        <ele>135.003937</ele>
        <time>2012-02-04T15:12:14Z</time>
      </trkpt>
      <trkpt lat="46.94287" lon="-0.58263">
        <ele>134.003815</ele>
        <time>2012-02-04T15:12:16Z</time>
      </trkpt>
      <trkpt lat="46.94291" lon="-0.58287">
        <ele>131.003662</ele>
        <time>2012-02-04T15:12:19Z</time>
      </trkpt>
      <trkpt lat="46.94294" lon="-0.58302">
        <ele>130.00354</ele>
        <time>2012-02-04T15:12:21Z</time>
      </trkpt>
      <trkpt lat="46.94297" lon="-0.58317">
        <ele>129.003448</ele>
        <time>2012-02-04T15:12:23Z</time>
      </trkpt>
      <trkpt lat="46.94304" lon="-0.58331">
        <ele>128.003357</ele>
        <time>2012-02-04T15:12:25Z</time>
      </trkpt>
      <trkpt lat="46.94311" lon="-0.58345">
        <ele>127.003288</ele>
        <time>2012-02-04T15:12:27Z</time>
      </trkpt>
      <trkpt lat="46.94313" lon="-0.58361">
        <ele>127.003159</ele>
        <time>2012-02-04T15:12:29Z</time>
      </trkpt>
      <trkpt lat="46.94314" lon="-0.58377">
        <ele>126.003036</ele>
        <time>2012-02-04T15:12:31Z</time>
      </trkpt>
      <trkpt lat="46.94316" lon="-0.58391">
        <ele>125.00293</ele>
        <time>2012-02-04T15:12:33Z</time>
      </trkpt>
      <trkpt lat="46.94326" lon="-0.58396">
        <ele>124.00293</ele>
        <time>2012-02-04T15:12:35Z</time>
      </trkpt>
      <trkpt lat="46.94335" lon="-0.58401">
        <ele>124.00293</ele>
        <time>2012-02-04T15:12:37Z</time>
      </trkpt>
      <trkpt lat="46.94342" lon="-0.58411">
        <ele>123.002884</ele>
        <time>2012-02-04T15:12:39Z</time>
      </trkpt>
      <trkpt lat="46.94346" lon="-0.58426">
        <ele>122.002777</ele>
        <time>2012-02-04T15:12:41Z</time>
      </trkpt>
      <trkpt lat="46.94348" lon="-0.5844">
        <ele>122.002655</ele>
        <time>2012-02-04T15:12:43Z</time>
      </trkpt>
      <trkpt lat="46.94352" lon="-0.58454">
        <ele>122.002563</ele>
        <time>2012-02-04T15:12:45Z</time>
      </trkpt>
      <trkpt lat="46.94356" lon="-0.58467">
        <ele>121.002495</ele>
        <time>2012-02-04T15:12:47Z</time>
      </trkpt>
      <trkpt lat="46.94362" lon="-0.58478">
        <ele>120.002426</ele>
        <time>2012-02-04T15:12:49Z</time>
      </trkpt>
      <trkpt lat="46.9437" lon="-0.58489">
        <ele>120.002373</ele>
        <time>2012-02-04T15:12:51Z</time>
      </trkpt>
      <trkpt lat="46.94373" lon="-0.58495">
        <ele>119.002335</ele>
        <time>2012-02-04T15:12:52Z</time>
      </trkpt>
      <trkpt lat="46.9438" lon="-0.58505">
        <ele>118.002296</ele>
        <time>2012-02-04T15:12:54Z</time>
      </trkpt>
      <trkpt lat="46.94388" lon="-0.58513">
        <ele>118.002243</ele>
        <time>2012-02-04T15:12:56Z</time>
      </trkpt>
      <trkpt lat="46.94396" lon="-0.58527">
        <ele>118.002182</ele>
        <time>2012-02-04T15:12:59Z</time>
      </trkpt>
      <trkpt lat="46.94398" lon="-0.58544">
        <ele>119.002045</ele>
        <time>2012-02-04T15:13:02Z</time>
      </trkpt>
      <trkpt lat="46.94402" lon="-0.58563">
        <ele>119.001915</ele>
        <time>2012-02-04T15:13:05Z</time>
      </trkpt>
      <trkpt lat="46.9441" lon="-0.58575">
        <ele>120.001846</ele>
        <time>2012-02-04T15:13:08Z</time>
      </trkpt>
      <trkpt lat="46.94418" lon="-0.58581">
        <ele>120.001831</ele>
        <time>2012-02-04T15:13:11Z</time>
      </trkpt>
      <trkpt lat="46.94421" lon="-0.58581">
        <ele>120.001854</ele>
        <time>2012-02-04T15:13:12Z</time>
      </trkpt>
      <trkpt lat="46.94431" lon="-0.58583">
        <ele>121.001862</ele>
        <time>2012-02-04T15:13:17Z</time>
      </trkpt>
      <trkpt lat="46.94434" lon="-0.58586">
        <ele>121.001862</ele>
        <time>2012-02-04T15:13:18Z</time>
      </trkpt>
      <trkpt lat="46.94438" lon="-0.58604">
        <ele>122.00174</ele>
        <time>2012-02-04T15:13:21Z</time>
      </trkpt>
      <trkpt lat="46.94439" lon="-0.5862">
        <ele>122.00161</ele>
        <time>2012-02-04T15:13:24Z</time>
      </trkpt>
      <trkpt lat="46.94439" lon="-0.58637">
        <ele>122.001495</ele>
        <time>2012-02-04T15:13:28Z</time>
      </trkpt>
      <trkpt lat="46.94439" lon="-0.58651">
        <ele>122.001358</ele>
        <time>2012-02-04T15:13:31Z</time>
      </trkpt>
      <trkpt lat="46.94439" lon="-0.58655">
        <ele>122.001328</ele>
        <time>2012-02-04T15:13:32Z</time>
      </trkpt>
      <trkpt lat="46.94442" lon="-0.58672">
        <ele>122.001205</ele>
        <time>2012-02-04T15:13:36Z</time>
      </trkpt>
      <trkpt lat="46.94446" lon="-0.58685">
        <ele>123.001114</ele>
        <time>2012-02-04T15:13:40Z</time>
      </trkpt>
      <trkpt lat="46.94443" lon="-0.58702">
        <ele>123.000969</ele>
        <time>2012-02-04T15:13:44Z</time>
      </trkpt>
      <trkpt lat="46.94439" lon="-0.58715">
        <ele>122.000854</ele>
        <time>2012-02-04T15:13:46Z</time>
      </trkpt>
      <trkpt lat="46.94437" lon="-0.5872">
        <ele>122.000809</ele>
        <time>2012-02-04T15:13:47Z</time>
      </trkpt>
      <trkpt lat="46.94438" lon="-0.58738">
        <ele>121.000648</ele>
        <time>2012-02-04T15:13:50Z</time>
      </trkpt>
      <trkpt lat="46.94439" lon="-0.58754">
        <ele>121.000534</ele>
        <time>2012-02-04T15:13:53Z</time>
      </trkpt>
      <trkpt lat="46.94442" lon="-0.58768">
        <ele>122.000443</ele>
        <time>2012-02-04T15:13:56Z</time>
      </trkpt>
      <trkpt lat="46.9444" lon="-0.58784">
        <ele>122.000305</ele>
        <time>2012-02-04T15:13:59Z</time>
      </trkpt>
      <trkpt lat="46.94434" lon="-0.58799">
        <ele>123.000145</ele>
        <time>2012-02-04T15:14:02Z</time>
      </trkpt>
      <trkpt lat="46.94422" lon="-0.58808">
        <ele>122.000038</ele>
        <time>2012-02-04T15:14:05Z</time>
      </trkpt>
      <trkpt lat="46.94412" lon="-0.58819">
        <ele>120.999901</ele>
        <time>2012-02-04T15:14:08Z</time>
      </trkpt>
      <trkpt lat="46.94417" lon="-0.58835">
        <ele>119.999802</ele>
        <time>2012-02-04T15:14:12Z</time>
      </trkpt>
      <trkpt lat="46.94419" lon="-0.58848">
        <ele>120.99968</ele>
        <time>2012-02-04T15:14:17Z</time>
      </trkpt>
      <trkpt lat="46.94418" lon="-0.58854">
        <ele>120.999649</ele>
        <time>2012-02-04T15:14:18Z</time>
      </trkpt>
      <trkpt lat="46.94411" lon="-0.5887">
        <ele>120.999481</ele>
        <time>2012-02-04T15:14:21Z</time>
      </trkpt>
      <trkpt lat="46.944" lon="-0.58878">
        <ele>119.999374</ele>
        <time>2012-02-04T15:14:24Z</time>
      </trkpt>
      <trkpt lat="46.94394" lon="-0.58883">
        <ele>119.999298</ele>
        <time>2012-02-04T15:14:26Z</time>
      </trkpt>
      <trkpt lat="46.94392" lon="-0.58899">
        <ele>119.999176</ele>
        <time>2012-02-04T15:14:29Z</time>
      </trkpt>
      <trkpt lat="46.944" lon="-0.58905">
        <ele>120.999161</ele>
        <time>2012-02-04T15:14:32Z</time>
      </trkpt>
      <trkpt lat="46.9441" lon="-0.58908">
        <ele>121.999176</ele>
        <time>2012-02-04T15:14:35Z</time>
      </trkpt>
      <trkpt lat="46.94418" lon="-0.58918">
        <ele>124.99913</ele>
        <time>2012-02-04T15:14:39Z</time>
      </trkpt>
      <trkpt lat="46.94421" lon="-0.58933">
        <ele>125.999016</ele>
        <time>2012-02-04T15:14:42Z</time>
      </trkpt>
      <trkpt lat="46.94426" lon="-0.58946">
        <ele>128.998932</ele>
        <time>2012-02-04T15:14:45Z</time>
      </trkpt>
      <trkpt lat="46.94434" lon="-0.58955">
        <ele>130.998886</ele>
        <time>2012-02-04T15:14:49Z</time>
      </trkpt>
      <trkpt lat="46.94441" lon="-0.58965">
        <ele>129.998871</ele>
        <time>2012-02-04T15:14:54Z</time>
      </trkpt>
      <trkpt lat="46.94446" lon="-0.58976">
        <ele>129.998779</ele>
        <time>2012-02-04T15:14:57Z</time>
      </trkpt>
      <trkpt lat="46.94451" lon="-0.5899">
        <ele>129.998688</ele>
        <time>2012-02-04T15:15:00Z</time>
      </trkpt>
      <trkpt lat="46.94452" lon="-0.58995">
        <ele>129.998657</ele>
        <time>2012-02-04T15:15:01Z</time>
      </trkpt>
      <trkpt lat="46.94457" lon="-0.59009">
        <ele>128.998566</ele>
        <time>2012-02-04T15:15:04Z</time>
      </trkpt>
      <trkpt lat="46.94462" lon="-0.59016">
        <ele>128.998535</ele>
        <time>2012-02-04T15:15:06Z</time>
      </trkpt>
      <trkpt lat="46.9447" lon="-0.59025">
        <ele>128.998489</ele>
        <time>2012-02-04T15:15:09Z</time>
      </trkpt>
      <trkpt lat="46.94478" lon="-0.59035">
        <ele>127.998451</ele>
        <time>2012-02-04T15:15:12Z</time>
      </trkpt>
      <trkpt lat="46.94488" lon="-0.59044">
        <ele>127.998421</ele>
        <time>2012-02-04T15:15:15Z</time>
      </trkpt>
      <trkpt lat="46.94499" lon="-0.59055">
        <ele>126.998367</ele>
        <time>2012-02-04T15:15:18Z</time>
      </trkpt>
      <trkpt lat="46.9451" lon="-0.59064">
        <ele>126.998337</ele>
        <time>2012-02-04T15:15:21Z</time>
      </trkpt>
      <trkpt lat="46.94521" lon="-0.59074">
        <ele>125.998306</ele>
        <time>2012-02-04T15:15:24Z</time>
      </trkpt>
      <trkpt lat="46.94532" lon="-0.59084">
        <ele>124.998276</ele>
        <time>2012-02-04T15:15:27Z</time>
      </trkpt>
      <trkpt lat="46.9454" lon="-0.59095">
        <ele>124.998215</ele>
        <time>2012-02-04T15:15:30Z</time>
      </trkpt>
      <trkpt lat="46.94547" lon="-0.59107">
        <ele>124.998161</ele>
        <time>2012-02-04T15:15:33Z</time>
      </trkpt>
      <trkpt lat="46.94552" lon="-0.59119">
        <ele>125.998077</ele>
        <time>2012-02-04T15:15:36Z</time>
      </trkpt>
      <trkpt lat="46.94562" lon="-0.59119">
        <ele>126.998123</ele>
        <time>2012-02-04T15:15:40Z</time>
      </trkpt>
      <trkpt lat="46.9457" lon="-0.59108">
        <ele>128.998245</ele>
        <time>2012-02-04T15:15:43Z</time>
      </trkpt>
      <trkpt lat="46.94579" lon="-0.59098">
        <ele>130.998367</ele>
        <time>2012-02-04T15:15:46Z</time>
      </trkpt>
      <trkpt lat="46.94588" lon="-0.59088">
        <ele>131.998489</ele>
        <time>2012-02-04T15:15:49Z</time>
      </trkpt>
      <trkpt lat="46.94597" lon="-0.59078">
        <ele>132.998596</ele>
        <time>2012-02-04T15:15:52Z</time>
      </trkpt>
      <trkpt lat="46.94606" lon="-0.59068">
        <ele>132.998718</ele>
        <time>2012-02-04T15:15:55Z</time>
      </trkpt>
      <trkpt lat="46.94615" lon="-0.59059">
        <ele>133.99884</ele>
        <time>2012-02-04T15:15:58Z</time>
      </trkpt>
      <trkpt lat="46.94625" lon="-0.59049">
        <ele>134.998947</ele>
        <time>2012-02-04T15:16:01Z</time>
      </trkpt>
      <trkpt lat="46.94634" lon="-0.59039">
        <ele>135.999084</ele>
        <time>2012-02-04T15:16:04Z</time>
      </trkpt>
      <trkpt lat="46.94643" lon="-0.59029">
        <ele>136.999207</ele>
        <time>2012-02-04T15:16:07Z</time>
      </trkpt>
      <trkpt lat="46.94652" lon="-0.59019">
        <ele>136.999298</ele>
        <time>2012-02-04T15:16:10Z</time>
      </trkpt>
      <trkpt lat="46.94661" lon="-0.59011">
        <ele>137.999405</ele>
        <time>2012-02-04T15:16:13Z</time>
      </trkpt>
      <trkpt lat="46.94669" lon="-0.59002">
        <ele>137.999512</ele>
        <time>2012-02-04T15:16:16Z</time>
      </trkpt>
      <trkpt lat="46.94668" lon="-0.58985">
        <ele>137.999649</ele>
        <time>2012-02-04T15:16:20Z</time>
      </trkpt>
      <trkpt lat="46.94668" lon="-0.5897">
        <ele>138.999786</ele>
        <time>2012-02-04T15:16:23Z</time>
      </trkpt>
      <trkpt lat="46.94674" lon="-0.58957">
        <ele>138.999908</ele>
        <time>2012-02-04T15:16:26Z</time>
      </trkpt>
      <trkpt lat="46.94681" lon="-0.58948">
        <ele>139.000015</ele>
        <time>2012-02-04T15:16:29Z</time>
      </trkpt>
      <trkpt lat="46.94691" lon="-0.5894">
        <ele>140.000092</ele>
        <time>2012-02-04T15:16:33Z</time>
      </trkpt>
      <trkpt lat="46.947" lon="-0.58934">
        <ele>142.000198</ele>
        <time>2012-02-04T15:16:36Z</time>
      </trkpt>
      <trkpt lat="46.9471" lon="-0.58928">
        <ele>143.000275</ele>
        <time>2012-02-04T15:16:39Z</time>
      </trkpt>
      <trkpt lat="46.94717" lon="-0.58925">
        <ele>143.000336</ele>
        <time>2012-02-04T15:16:41Z</time>
      </trkpt>
      <trkpt lat="46.94727" lon="-0.5892">
        <ele>144.000427</ele>
        <time>2012-02-04T15:16:44Z</time>
      </trkpt>
      <trkpt lat="46.94737" lon="-0.58915">
        <ele>145.000519</ele>
        <time>2012-02-04T15:16:47Z</time>
      </trkpt>
      <trkpt lat="46.94746" lon="-0.58912">
        <ele>145.000565</ele>
        <time>2012-02-04T15:16:50Z</time>
      </trkpt>
      <trkpt lat="46.94756" lon="-0.58908">
        <ele>146.000641</ele>
        <time>2012-02-04T15:16:53Z</time>
      </trkpt>
      <trkpt lat="46.94765" lon="-0.58905">
        <ele>147.000702</ele>
        <time>2012-02-04T15:16:56Z</time>
      </trkpt>
      <trkpt lat="46.94775" lon="-0.589">
        <ele>148.000778</ele>
        <time>2012-02-04T15:17:00Z</time>
      </trkpt>
      <trkpt lat="46.94783" lon="-0.58895">
        <ele>150.000854</ele>
        <time>2012-02-04T15:17:04Z</time>
      </trkpt>
      <trkpt lat="46.94793" lon="-0.58889">
        <ele>151.000946</ele>
        <time>2012-02-04T15:17:09Z</time>
      </trkpt>
      <trkpt lat="46.94801" lon="-0.58881">
        <ele>154.001068</ele>
        <time>2012-02-04T15:17:14Z</time>
      </trkpt>
      <trkpt lat="46.94808" lon="-0.58874">
        <ele>157.001129</ele>
        <time>2012-02-04T15:17:17Z</time>
      </trkpt>
      <trkpt lat="46.94818" lon="-0.58864">
        <ele>158.001251</ele>
        <time>2012-02-04T15:17:21Z</time>
      </trkpt>
      <trkpt lat="46.9482" lon="-0.58862">
        <ele>159.001282</ele>
        <time>2012-02-04T15:17:22Z</time>
      </trkpt>
      <trkpt lat="46.9483" lon="-0.58853">
        <ele>160.001404</ele>
        <time>2012-02-04T15:17:26Z</time>
      </trkpt>
      <trkpt lat="46.94837" lon="-0.58845">
        <ele>161.001495</ele>
        <time>2012-02-04T15:17:29Z</time>
      </trkpt>
      <trkpt lat="46.94843" lon="-0.58836">
        <ele>161.001587</ele>
        <time>2012-02-04T15:17:32Z</time>
      </trkpt>
      <trkpt lat="46.9485" lon="-0.58826">
        <ele>160.001694</ele>
        <time>2012-02-04T15:17:35Z</time>
      </trkpt>
      <trkpt lat="46.94857" lon="-0.58816">
        <ele>160.001801</ele>
        <time>2012-02-04T15:17:38Z</time>
      </trkpt>
      <trkpt lat="46.94862" lon="-0.58806">
        <ele>160.001923</ele>
        <time>2012-02-04T15:17:41Z</time>
      </trkpt>
      <trkpt lat="46.94868" lon="-0.58795">
        <ele>160.002014</ele>
        <time>2012-02-04T15:17:44Z</time>
      </trkpt>
      <trkpt lat="46.94873" lon="-0.58767">
        <ele>161.002258</ele>
        <time>2012-02-04T15:17:51Z</time>
      </trkpt>
      <trkpt lat="46.94867" lon="-0.58756">
        <ele>162.002335</ele>
        <time>2012-02-04T15:17:54Z</time>
      </trkpt>
      <trkpt lat="46.94861" lon="-0.58745">
        <ele>161.002396</ele>
        <time>2012-02-04T15:17:57Z</time>
      </trkpt>
      <trkpt lat="46.94857" lon="-0.58733">
        <ele>161.002472</ele>
        <time>2012-02-04T15:18:00Z</time>
      </trkpt>
      <trkpt lat="46.94853" lon="-0.58721">
        <ele>161.002548</ele>
        <time>2012-02-04T15:18:03Z</time>
      </trkpt>
      <trkpt lat="46.94847" lon="-0.58708">
        <ele>162.00264</ele>
        <time>2012-02-04T15:18:06Z</time>
      </trkpt>
      <trkpt lat="46.94841" lon="-0.58695">
        <ele>162.002716</ele>
        <time>2012-02-04T15:18:09Z</time>
      </trkpt>
      <trkpt lat="46.94832" lon="-0.58684">
        <ele>162.002762</ele>
        <time>2012-02-04T15:18:12Z</time>
      </trkpt>
      <trkpt lat="46.94825" lon="-0.58667">
        <ele>161.002884</ele>
        <time>2012-02-04T15:18:15Z</time>
      </trkpt>
      <trkpt lat="46.94821" lon="-0.58651">
        <ele>161.002975</ele>
        <time>2012-02-04T15:18:17Z</time>
      </trkpt>
      <trkpt lat="46.94816" lon="-0.58637">
        <ele>160.003067</ele>
        <time>2012-02-04T15:18:19Z</time>
      </trkpt>
      <trkpt lat="46.94812" lon="-0.58624">
        <ele>159.003159</ele>
        <time>2012-02-04T15:18:21Z</time>
      </trkpt>
      <trkpt lat="46.94808" lon="-0.58611">
        <ele>159.00325</ele>
        <time>2012-02-04T15:18:23Z</time>
      </trkpt>
      <trkpt lat="46.94804" lon="-0.58599">
        <ele>158.003326</ele>
        <time>2012-02-04T15:18:25Z</time>
      </trkpt>
      <trkpt lat="46.948" lon="-0.58586">
        <ele>157.003418</ele>
        <time>2012-02-04T15:18:27Z</time>
      </trkpt>
      <trkpt lat="46.94795" lon="-0.58574">
        <ele>157.003479</ele>
        <time>2012-02-04T15:18:29Z</time>
      </trkpt>
      <trkpt lat="46.9479" lon="-0.58563">
        <ele>157.003555</ele>
        <time>2012-02-04T15:18:31Z</time>
      </trkpt>
      <trkpt lat="46.94785" lon="-0.58552">
        <ele>156.003632</ele>
        <time>2012-02-04T15:18:33Z</time>
      </trkpt>
      <trkpt lat="46.94778" lon="-0.58535">
        <ele>156.003738</ele>
        <time>2012-02-04T15:18:36Z</time>
      </trkpt>
      <trkpt lat="46.94772" lon="-0.58518">
        <ele>156.003845</ele>
        <time>2012-02-04T15:18:39Z</time>
      </trkpt>
      <trkpt lat="46.94767" lon="-0.58506">
        <ele>157.003922</ele>
        <time>2012-02-04T15:18:41Z</time>
      </trkpt>
      <trkpt lat="46.94762" lon="-0.58495">
        <ele>156.003998</ele>
        <time>2012-02-04T15:18:43Z</time>
      </trkpt>
      <trkpt lat="46.94758" lon="-0.58484">
        <ele>157.004059</ele>
        <time>2012-02-04T15:18:45Z</time>
      </trkpt>
      <trkpt lat="46.94753" lon="-0.58472">
        <ele>157.004135</ele>
        <time>2012-02-04T15:18:47Z</time>
      </trkpt>
      <trkpt lat="46.94749" lon="-0.5846">
        <ele>157.004211</ele>
        <time>2012-02-04T15:18:49Z</time>
      </trkpt>
      <trkpt lat="46.94745" lon="-0.58448">
        <ele>157.004288</ele>
        <time>2012-02-04T15:18:51Z</time>
      </trkpt>
      <trkpt lat="46.9474" lon="-0.58435">
        <ele>157.004364</ele>
        <time>2012-02-04T15:18:53Z</time>
      </trkpt>
      <trkpt lat="46.94735" lon="-0.58421">
        <ele>157.004456</ele>
        <time>2012-02-04T15:18:55Z</time>
      </trkpt>
      <trkpt lat="46.94733" lon="-0.58415">
        <ele>157.004501</ele>
        <time>2012-02-04T15:18:56Z</time>
      </trkpt>
      <trkpt lat="46.94728" lon="-0.58401">
        <ele>158.004593</ele>
        <time>2012-02-04T15:18:58Z</time>
      </trkpt>
      <trkpt lat="46.94723" lon="-0.58387">
        <ele>159.004669</ele>
        <time>2012-02-04T15:19:00Z</time>
      </trkpt>
      <trkpt lat="46.94721" lon="-0.5838">
        <ele>159.00473</ele>
        <time>2012-02-04T15:19:01Z</time>
      </trkpt>
      <trkpt lat="46.94717" lon="-0.58368">
        <ele>159.004822</ele>
        <time>2012-02-04T15:19:03Z</time>
      </trkpt>
      <trkpt lat="46.94712" lon="-0.58343">
        <ele>158.00499</ele>
        <time>2012-02-04T15:19:20Z</time>
      </trkpt>
    </trkseg>
  </trk>
</gpx>